createdAt,value
2022-10-12T00:00:38.601Z,11.94
2022-10-12T00:03:09.252Z,11.81
2022-10-12T00:05:37.115Z,12.09
2022-10-12T00:08:04.904Z,12.18
2022-10-12T00:10:33.065Z,12.05
2022-10-12T00:13:01.174Z,12.09
2022-10-12T00:15:28.954Z,11.74
2022-10-12T00:17:57.045Z,12.49
2022-10-12T00:20:24.894Z,12.39
2022-10-12T00:22:52.688Z,12.19
2022-10-12T00:25:20.993Z,12.46
2022-10-12T00:27:48.772Z,12.60
2022-10-12T00:30:16.775Z,12.80
2022-10-12T00:32:44.834Z,12.83
2022-10-12T00:35:12.604Z,12.65
2022-10-12T00:37:40.476Z,12.84
2022-10-12T00:40:09.282Z,12.78
2022-10-12T00:42:37.103Z,12.76
2022-10-12T00:45:05.375Z,12.37
2022-10-12T00:47:38.886Z,12.48
2022-10-12T00:50:07.487Z,12.59
2022-10-12T00:52:41.322Z,12.44
2022-10-12T00:55:10.953Z,12.25
2022-10-12T00:57:43.245Z,12.35
2022-10-12T01:00:14.145Z,12.11
2022-10-12T01:02:43.654Z,12.20
2022-10-12T01:05:12.035Z,12.04
2022-10-12T01:07:40.068Z,12.01
2022-10-12T01:10:09.003Z,11.39
2022-10-12T01:12:37.155Z,11.45
2022-10-12T01:15:05.955Z,11.66
2022-10-12T01:18:01.425Z,11.95
2022-10-12T01:20:38.324Z,11.96
2022-10-12T01:23:18.946Z,11.77
2022-10-12T01:25:58.573Z,11.74
2022-10-12T01:28:54.578Z,11.67
2022-10-12T01:31:32.839Z,10.66
2022-10-12T01:34:04.103Z,11.26
2022-10-12T01:36:41.376Z,11.16
2022-10-12T01:39:16.675Z,11.22
2022-10-12T01:41:50.863Z,10.98
2022-10-12T01:44:23.473Z,11.69
2022-10-12T01:46:55.699Z,11.66
2022-10-12T01:49:26.893Z,11.58
2022-10-12T01:52:05.394Z,10.92
2022-10-12T01:54:47.564Z,11.04
2022-10-12T01:57:36.787Z,11.13
2022-10-12T02:00:10.713Z,11.46
2022-10-12T02:02:51.034Z,11.85
2022-10-12T02:05:31.133Z,11.97
2022-10-12T02:08:20.025Z,12.07
2022-10-12T02:11:05.473Z,12.13
2022-10-12T02:13:36.915Z,12.06
2022-10-12T02:16:08.533Z,12.14
2022-10-12T02:18:39.714Z,12.27
2022-10-12T02:21:08.855Z,12.21
2022-10-12T02:23:37.306Z,12.18
2022-10-12T02:26:06.084Z,12.37
2022-10-12T02:28:36.476Z,12.45
2022-10-12T02:31:36.265Z,12.13
2022-10-12T02:34:16.453Z,12.29
2022-10-12T02:36:44.254Z,12.31
2022-10-12T02:39:15.266Z,11.84
2022-10-12T02:41:48.424Z,12.22
2022-10-12T02:44:20.253Z,12.18
2022-10-12T02:46:48.854Z,12.21
2022-10-12T02:49:17.900Z,12.00
2022-10-12T02:51:45.914Z,11.97
2022-10-12T02:54:13.833Z,12.32
2022-10-12T02:56:46.085Z,12.44
2022-10-12T02:59:15.131Z,12.42
2022-10-12T03:01:44.022Z,11.84
2022-10-12T03:04:11.815Z,12.53
2022-10-12T03:06:39.756Z,12.73
2022-10-12T03:09:08.088Z,12.25
2022-10-12T03:11:37.856Z,12.56
2022-10-12T03:14:05.624Z,12.54
2022-10-12T03:16:33.663Z,12.48
2022-10-12T03:19:01.435Z,12.02
2022-10-12T03:21:29.518Z,12.26
2022-10-12T03:23:57.801Z,11.88
2022-10-12T03:26:25.896Z,11.79
2022-10-12T03:28:53.641Z,11.80
2022-10-12T03:31:21.814Z,12.22
2022-10-12T03:33:49.674Z,12.30
2022-10-12T03:36:17.571Z,12.10
2022-10-12T03:38:45.654Z,12.03
2022-10-12T03:41:13.414Z,11.98
2022-10-12T03:43:41.227Z,12.01
2022-10-12T03:46:09.325Z,11.92
2022-10-12T03:48:37.248Z,11.93
2022-10-12T03:51:05.017Z,12.01
2022-10-12T03:53:33.304Z,11.99
2022-10-12T03:56:01.169Z,12.02
2022-10-12T03:58:29.014Z,12.12
2022-10-12T04:00:57.144Z,12.14
2022-10-12T04:03:25.225Z,12.27
2022-10-12T04:05:54.895Z,11.98
2022-10-12T04:08:23.751Z,12.37
2022-10-12T04:10:51.944Z,12.51
2022-10-12T04:13:19.794Z,12.38
2022-10-12T04:15:47.534Z,12.65
2022-10-12T04:18:15.684Z,12.74
2022-10-12T04:20:43.448Z,12.38
2022-10-12T04:23:11.236Z,12.59
2022-10-12T04:25:39.875Z,13.28
2022-10-12T04:28:08.084Z,12.97
2022-10-12T04:30:35.894Z,12.60
2022-10-12T04:33:04.385Z,13.07
2022-10-12T04:35:32.414Z,13.21
2022-10-12T04:38:00.173Z,13.51
2022-10-12T04:40:28.336Z,12.58
2022-10-12T04:42:56.391Z,12.56
2022-10-12T04:45:24.134Z,13.09
2022-10-12T04:47:52.205Z,12.62
2022-10-12T04:50:20.075Z,12.95
2022-10-12T04:52:47.825Z,12.89
2022-10-12T04:55:15.925Z,13.38
2022-10-12T04:57:45.184Z,12.66
2022-10-12T05:00:13.384Z,12.96
2022-10-12T05:02:41.544Z,12.70
2022-10-12T05:05:09.784Z,12.67
2022-10-12T05:07:37.805Z,12.82
2022-10-12T05:10:06.548Z,13.15
2022-10-12T05:12:34.324Z,13.23
2022-10-12T05:15:02.482Z,12.90
2022-10-12T05:17:30.823Z,12.91
2022-10-12T05:19:58.928Z,13.22
2022-10-12T05:22:26.724Z,13.43
2022-10-12T05:24:54.874Z,12.95
2022-10-12T05:27:23.053Z,12.95
2022-10-12T05:29:50.732Z,13.37
2022-10-12T05:32:18.755Z,13.07
2022-10-12T05:34:46.617Z,13.77
2022-10-12T05:37:14.446Z,13.95
2022-10-12T05:39:42.552Z,13.80
2022-10-12T05:42:10.305Z,13.86
2022-10-12T05:44:38.083Z,13.82
2022-10-12T05:47:06.238Z,13.96
2022-10-12T05:49:33.932Z,13.65
2022-10-12T05:52:01.778Z,14.25
2022-10-12T05:54:30.870Z,14.00
2022-10-12T05:56:59.476Z,14.60
2022-10-12T05:59:27.403Z,14.64
2022-10-12T06:01:55.522Z,15.27
2022-10-12T06:04:23.725Z,15.60
2022-10-12T06:06:51.534Z,15.81
2022-10-12T06:09:19.404Z,16.31
2022-10-12T06:11:49.127Z,16.67
2022-10-12T06:14:18.695Z,16.92
2022-10-12T06:16:47.652Z,17.42
2022-10-12T06:19:18.145Z,17.23
2022-10-12T06:21:45.914Z,17.68
2022-10-12T06:24:13.663Z,17.49
2022-10-12T06:26:41.694Z,17.23
2022-10-12T06:29:09.555Z,17.48
2022-10-12T06:31:38.591Z,17.50
2022-10-12T06:34:06.895Z,17.40
2022-10-12T06:36:34.921Z,17.19
2022-10-12T06:39:02.673Z,17.49
2022-10-12T06:41:30.673Z,17.52
2022-10-12T06:43:59.008Z,16.83
2022-10-12T06:46:26.865Z,16.60
2022-10-12T06:48:54.995Z,16.68
2022-10-12T06:51:22.812Z,16.63
2022-10-12T06:53:50.592Z,17.08
2022-10-12T06:56:18.715Z,16.95
2022-10-12T06:58:46.914Z,17.14
2022-10-12T07:01:18.898Z,17.22
2022-10-12T07:03:49.637Z,17.19
2022-10-12T07:06:17.824Z,16.95
2022-10-12T07:08:45.809Z,17.62
2022-10-12T07:11:14.167Z,17.30
2022-10-12T07:13:42.420Z,17.10
2022-10-12T07:16:10.264Z,17.46
2022-10-12T07:18:39.284Z,17.75
2022-10-12T07:21:07.241Z,18.25
2022-10-12T07:23:36.160Z,18.21
2022-10-12T07:26:04.363Z,17.60
2022-10-12T07:28:34.992Z,17.54
2022-10-12T07:31:05.031Z,17.57
2022-10-12T07:33:34.683Z,17.27
2022-10-12T07:36:13.997Z,17.66
2022-10-12T07:38:48.191Z,17.38
2022-10-12T07:41:16.695Z,18.28
2022-10-12T07:43:45.165Z,18.24
2022-10-12T07:46:13.269Z,18.06
2022-10-12T07:48:45.896Z,18.05
2022-10-12T07:51:15.708Z,17.90
2022-10-12T07:53:43.729Z,18.46
2022-10-12T07:56:15.728Z,18.17
2022-10-12T07:58:53.693Z,18.42
2022-10-12T08:01:23.757Z,18.96
2022-10-12T08:03:53.808Z,18.78
2022-10-12T08:06:26.879Z,18.50
2022-10-12T08:08:55.543Z,18.48
2022-10-12T08:11:25.343Z,18.76
2022-10-12T08:13:53.766Z,19.02
2022-10-12T08:16:25.838Z,18.63
2022-10-12T08:18:55.527Z,18.86
2022-10-12T08:21:24.300Z,18.99
2022-10-12T08:23:52.497Z,18.95
2022-10-12T08:26:20.400Z,18.96
2022-10-12T08:28:48.756Z,18.94
2022-10-12T08:31:17.903Z,18.69
2022-10-12T08:33:45.785Z,18.94
2022-10-12T08:36:14.093Z,18.46
2022-10-12T08:38:43.833Z,18.48
2022-10-12T08:41:47.263Z,18.80
2022-10-12T08:44:25.614Z,18.21
2022-10-12T08:47:03.185Z,18.42
2022-10-12T08:49:32.194Z,18.35
2022-10-12T08:52:03.442Z,18.56
2022-10-12T08:54:39.445Z,18.73
2022-10-12T08:57:15.804Z,19.00
2022-10-12T08:59:44.584Z,18.85
2022-10-12T09:02:51.585Z,18.85
2022-10-12T09:05:28.355Z,19.20
2022-10-12T09:08:03.425Z,19.54
2022-10-12T09:10:47.351Z,19.28
2022-10-12T09:13:48.593Z,19.11
2022-10-12T09:16:16.734Z,19.45
2022-10-12T09:18:47.344Z,19.56
2022-10-12T09:21:20.976Z,19.34
2022-10-12T09:23:49.422Z,19.64
2022-10-12T09:26:23.886Z,19.00
2022-10-12T09:28:57.747Z,19.10
2022-10-12T09:31:53.673Z,19.79
2022-10-12T09:34:23.835Z,19.46
2022-10-12T09:36:51.942Z,19.56
2022-10-12T09:39:47.122Z,19.76
2022-10-12T09:42:15.284Z,20.13
2022-10-12T09:44:51.013Z,19.57
2022-10-12T09:47:25.165Z,19.62
2022-10-12T09:49:59.871Z,19.98
2022-10-12T09:52:41.970Z,19.99
2022-10-12T09:55:13.353Z,20.16
2022-10-12T09:57:44.236Z,20.42
2022-10-12T10:00:31.452Z,20.50
2022-10-12T10:03:01.075Z,20.50
2022-10-12T10:05:33.154Z,21.24
2022-10-12T10:08:20.365Z,21.30
2022-10-12T10:10:53.615Z,21.46
2022-10-12T10:13:24.064Z,21.39
2022-10-12T10:16:03.802Z,20.95
2022-10-12T10:18:35.903Z,21.16
2022-10-12T10:21:07.032Z,21.88
2022-10-12T10:23:51.556Z,21.20
2022-10-12T10:26:21.785Z,21.82
2022-10-12T10:28:56.297Z,22.17
2022-10-12T10:31:29.174Z,21.64
2022-10-12T10:34:15.745Z,21.78
2022-10-12T10:36:49.274Z,21.77
2022-10-12T10:39:19.673Z,21.66
2022-10-12T10:41:47.815Z,21.82
2022-10-12T10:44:30.989Z,21.33
2022-10-12T10:47:02.727Z,21.71
2022-10-12T10:49:56.044Z,21.62
2022-10-12T10:52:33.243Z,21.06
2022-10-12T10:55:10.409Z,21.93
2022-10-12T10:57:42.955Z,21.77
2022-10-12T11:00:37.791Z,21.04
2022-10-12T11:03:13.664Z,21.26
2022-10-12T11:05:45.952Z,20.98
2022-10-12T11:08:26.762Z,20.62
2022-10-12T11:10:57.913Z,20.50
2022-10-12T11:13:31.596Z,20.93
2022-10-12T11:16:09.524Z,21.13
2022-10-12T11:18:46.023Z,20.61
2022-10-12T11:21:16.313Z,20.72
2022-10-12T11:24:11.112Z,20.94
2022-10-12T11:26:45.943Z,21.13
2022-10-12T11:29:15.423Z,21.19
2022-10-12T11:31:49.301Z,21.02
2022-10-12T11:34:19.422Z,21.00
2022-10-12T11:37:17.727Z,20.78
2022-10-12T11:39:45.068Z,20.76
2022-10-12T11:42:21.867Z,20.91
2022-10-12T11:44:51.795Z,21.06
2022-10-12T11:47:31.298Z,21.58
2022-10-12T11:50:05.923Z,21.58
2022-10-12T11:52:46.407Z,21.65
2022-10-12T11:55:32.845Z,22.00
2022-10-12T11:58:13.271Z,21.87
2022-10-12T12:00:56.335Z,21.93
2022-10-12T12:03:33.633Z,22.15
2022-10-12T12:06:30.792Z,22.19
2022-10-12T12:09:26.678Z,22.53
2022-10-12T12:12:16.741Z,22.08
2022-10-12T12:14:53.976Z,21.97
2022-10-12T12:17:28.005Z,22.02
2022-10-12T12:20:25.622Z,21.98
2022-10-12T12:22:55.503Z,21.97
2022-10-12T12:25:30.504Z,22.04
2022-10-12T12:28:20.782Z,21.62
2022-10-12T12:31:00.985Z,20.95
2022-10-12T12:33:35.757Z,21.17
2022-10-12T12:36:06.980Z,21.47
2022-10-12T12:38:53.114Z,21.34
2022-10-12T12:41:21.854Z,21.29
2022-10-12T12:43:58.637Z,21.46
2022-10-12T12:46:52.705Z,21.17
2022-10-12T12:49:44.217Z,21.22
2022-10-12T12:52:42.319Z,21.83
2022-10-12T12:55:16.593Z,21.26
2022-10-12T12:58:05.706Z,21.29
2022-10-12T13:00:39.058Z,21.19
2022-10-12T13:03:25.837Z,21.11
2022-10-12T13:06:05.586Z,21.38
2022-10-12T13:08:45.944Z,21.42
2022-10-12T13:11:43.655Z,21.45
2022-10-12T13:14:42.604Z,20.96
2022-10-12T13:17:35.566Z,21.42
2022-10-12T13:20:17.675Z,21.46
2022-10-12T13:22:47.848Z,21.40
2022-10-12T13:25:28.284Z,21.72
2022-10-12T13:27:57.558Z,21.77
2022-10-12T13:30:41.290Z,21.27
2022-10-12T13:33:10.190Z,21.29
2022-10-12T13:36:20.573Z,21.39
2022-10-12T13:38:48.446Z,21.37
2022-10-12T13:41:18.181Z,21.60
2022-10-12T13:43:50.437Z,21.11
2022-10-12T13:46:41.536Z,21.36
2022-10-12T13:49:27.724Z,21.49
2022-10-12T13:51:57.348Z,21.58
2022-10-12T13:54:32.401Z,21.46
2022-10-12T13:57:24.233Z,21.92
2022-10-12T14:00:01.028Z,21.57
2022-10-12T14:02:32.144Z,21.29
2022-10-12T14:05:02.809Z,21.63
2022-10-12T14:07:39.515Z,21.86
2022-10-12T14:10:20.076Z,22.08
2022-10-12T14:12:50.303Z,21.71
2022-10-12T14:15:19.697Z,21.91
2022-10-12T14:17:50.956Z,21.66
2022-10-12T14:20:35.093Z,21.88
2022-10-12T14:23:05.308Z,21.74
2022-10-12T14:25:33.753Z,21.26
2022-10-12T14:28:04.831Z,21.46
2022-10-12T14:30:39.700Z,20.89
2022-10-12T14:33:21.373Z,20.38
2022-10-12T14:35:51.935Z,20.69
2022-10-12T14:38:46.986Z,20.72
2022-10-12T14:41:36.823Z,21.11
2022-10-12T14:44:14.012Z,20.75
2022-10-12T14:46:52.395Z,20.84
2022-10-12T14:49:35.405Z,20.63
2022-10-12T14:52:03.416Z,20.62
2022-10-12T14:54:31.887Z,20.21
2022-10-12T14:57:13.779Z,20.10
2022-10-12T14:59:42.640Z,20.47
2022-10-12T15:02:22.890Z,20.41
2022-10-12T15:04:54.936Z,20.67
2022-10-12T15:07:32.658Z,19.63
2022-10-12T15:10:01.696Z,20.00
2022-10-12T15:12:33.036Z,20.02
2022-10-12T15:15:15.208Z,19.84
2022-10-12T15:17:43.196Z,19.57
2022-10-12T15:20:12.227Z,19.21
2022-10-12T15:22:40.395Z,19.02
2022-10-12T15:25:24.514Z,18.32
2022-10-12T15:27:52.683Z,17.98
2022-10-12T15:30:21.008Z,18.23
2022-10-12T15:32:48.997Z,18.40
2022-10-12T15:35:25.328Z,18.16
2022-10-12T15:37:56.448Z,17.81
2022-10-12T15:40:25.863Z,17.76
2022-10-12T15:42:54.314Z,17.63
2022-10-12T15:45:36.904Z,18.02
2022-10-12T15:48:06.566Z,18.04
2022-10-12T15:50:41.594Z,18.01
2022-10-12T15:53:14.764Z,17.76
2022-10-12T15:55:42.805Z,17.47
2022-10-12T15:58:10.985Z,17.31
2022-10-12T16:00:39.091Z,17.14
2022-10-12T16:03:07.316Z,16.94
2022-10-12T16:05:37.153Z,16.66
2022-10-12T16:08:05.825Z,16.38
2022-10-12T16:10:39.036Z,16.48
2022-10-12T16:13:08.616Z,16.60
2022-10-12T16:15:36.916Z,15.73
2022-10-12T16:18:05.507Z,15.41
2022-10-12T16:20:36.888Z,15.83
2022-10-12T16:23:11.813Z,16.43
2022-10-12T16:25:39.598Z,15.91
2022-10-12T16:28:07.774Z,15.62
2022-10-12T16:30:36.433Z,14.81
2022-10-12T16:33:04.257Z,15.21
2022-10-12T16:35:32.438Z,15.64
2022-10-12T16:38:00.495Z,15.93
2022-10-12T16:40:28.386Z,15.94
2022-10-12T16:42:59.075Z,15.74
2022-10-12T16:45:27.047Z,15.63
2022-10-12T16:47:54.886Z,15.50
2022-10-12T16:50:24.261Z,15.33
2022-10-12T16:52:52.868Z,15.45
2022-10-12T16:55:20.866Z,15.02
2022-10-12T16:57:49.322Z,14.58
2022-10-12T17:00:19.454Z,14.22
2022-10-12T17:02:48.045Z,14.33
2022-10-12T17:05:16.267Z,14.67
2022-10-12T17:07:44.657Z,15.00
2022-10-12T17:10:12.735Z,15.05
2022-10-12T17:12:42.858Z,14.97
2022-10-12T17:15:10.896Z,15.19
2022-10-12T17:17:38.937Z,14.96
2022-10-12T17:20:07.530Z,14.86
2022-10-12T17:22:35.294Z,14.47
2022-10-12T17:25:03.687Z,14.09
2022-10-12T17:27:32.563Z,14.59
2022-10-12T17:30:00.756Z,14.43
2022-10-12T17:32:28.645Z,14.33
2022-10-12T17:34:57.083Z,14.21
2022-10-12T17:37:25.243Z,13.93
2022-10-12T17:39:53.495Z,13.75
2022-10-12T17:42:23.575Z,13.98
2022-10-12T17:44:51.591Z,14.23
2022-10-12T17:47:20.675Z,14.13
2022-10-12T17:49:48.944Z,13.71
2022-10-12T17:52:17.092Z,13.95
2022-10-12T17:54:45.465Z,13.80
2022-10-12T17:57:13.885Z,13.53
2022-10-12T17:59:41.989Z,13.44
2022-10-12T18:02:10.296Z,13.19
2022-10-12T18:04:38.511Z,13.09
2022-10-12T18:07:06.454Z,13.26
2022-10-12T18:09:34.536Z,12.70
2022-10-12T18:12:02.728Z,13.00
2022-10-12T18:14:30.669Z,12.28
2022-10-12T18:16:59.097Z,12.85
2022-10-12T18:19:27.377Z,13.06
2022-10-12T18:21:55.665Z,12.89
2022-10-12T18:24:23.651Z,12.95
2022-10-12T18:26:53.649Z,12.64
2022-10-12T18:29:22.197Z,12.29
2022-10-12T18:31:50.161Z,12.60
2022-10-12T18:34:18.324Z,12.76
2022-10-12T18:36:46.167Z,12.56
2022-10-12T18:39:14.553Z,12.45
2022-10-12T18:41:42.925Z,12.54
2022-10-12T18:44:11.427Z,12.27
2022-10-12T18:46:39.345Z,12.05
2022-10-12T18:49:10.488Z,12.42
2022-10-12T18:51:40.296Z,12.22
2022-10-12T18:54:11.726Z,12.18
2022-10-12T18:56:40.676Z,12.22
2022-10-12T18:59:11.605Z,12.30
2022-10-12T19:01:39.981Z,12.21
2022-10-12T19:04:08.466Z,12.18
2022-10-12T19:06:42.227Z,12.10
2022-10-12T19:09:14.066Z,11.99
2022-10-12T19:11:42.075Z,12.11
2022-10-12T19:14:16.127Z,11.69
2022-10-12T19:16:44.667Z,11.82
2022-10-12T19:19:20.484Z,11.71
2022-10-12T19:21:52.116Z,11.69
2022-10-12T19:24:21.595Z,11.72
2022-10-12T19:26:49.469Z,11.50
2022-10-12T19:29:17.525Z,11.29
2022-10-12T19:31:48.137Z,10.93
2022-10-12T19:34:18.368Z,11.72
2022-10-12T19:36:47.118Z,11.77
2022-10-12T19:39:18.265Z,11.56
2022-10-12T19:41:47.086Z,11.44
2022-10-12T19:44:15.576Z,11.15
2022-10-12T19:46:47.380Z,11.30
2022-10-12T19:49:16.645Z,11.22
2022-10-12T19:51:44.950Z,11.20
2022-10-12T19:54:14.287Z,11.11
2022-10-12T19:56:42.545Z,10.94
2022-10-12T19:59:10.432Z,10.51
2022-10-12T20:01:39.144Z,10.55
2022-10-12T20:04:10.240Z,10.59
2022-10-12T20:06:38.415Z,11.25
2022-10-12T20:09:07.640Z,11.17
2022-10-12T20:11:38.540Z,10.74
2022-10-12T20:14:06.573Z,10.89
2022-10-12T20:16:35.335Z,11.00
2022-10-12T20:19:05.699Z,11.10
2022-10-12T20:21:33.566Z,11.09
2022-10-12T20:24:01.356Z,11.30
2022-10-12T20:26:29.496Z,11.43
2022-10-12T20:28:57.328Z,11.31
2022-10-12T20:31:27.572Z,11.22
2022-10-12T20:33:56.791Z,11.03
2022-10-12T20:36:29.687Z,10.29
2022-10-12T20:38:59.186Z,10.74
2022-10-12T20:41:28.030Z,11.27
2022-10-12T20:44:00.554Z,11.22
2022-10-12T20:46:29.595Z,11.00
2022-10-12T20:48:59.532Z,11.13
2022-10-12T20:51:44.755Z,11.06
2022-10-12T20:54:15.957Z,11.03
2022-10-12T20:56:44.366Z,10.96
2022-10-12T20:59:12.560Z,11.02
2022-10-12T21:01:40.295Z,11.05
2022-10-12T21:04:10.334Z,11.05
2022-10-12T21:06:38.693Z,10.34
2022-10-12T21:09:06.595Z,11.07
2022-10-12T21:11:34.773Z,11.02
2022-10-12T21:14:02.844Z,11.18
2022-10-12T21:16:31.174Z,11.13
2022-10-12T21:18:59.237Z,11.00
2022-10-12T21:21:28.964Z,11.03
2022-10-12T21:23:58.763Z,10.98
2022-10-12T21:26:28.295Z,11.00
2022-10-12T21:28:56.496Z,10.93
2022-10-12T21:31:27.125Z,10.97
2022-10-12T21:34:01.616Z,10.96
2022-10-12T21:36:30.905Z,10.79
2022-10-12T21:38:59.085Z,11.00
2022-10-12T21:41:28.865Z,11.03
2022-10-12T21:43:57.502Z,11.00
2022-10-12T21:46:30.633Z,10.94
2022-10-12T21:48:59.773Z,10.69
2022-10-12T21:51:30.136Z,10.53
2022-10-12T21:53:58.505Z,10.99
2022-10-12T21:56:28.326Z,10.58
2022-10-12T21:58:58.315Z,11.00
2022-10-12T22:01:44.353Z,10.68
2022-10-12T22:04:14.833Z,10.69
2022-10-12T22:06:43.606Z,11.05
2022-10-12T22:09:17.075Z,11.02
2022-10-12T22:11:46.796Z,10.67
2022-10-12T22:14:17.997Z,10.58
2022-10-12T22:16:46.502Z,10.87
2022-10-12T22:19:19.024Z,10.66
2022-10-12T22:21:51.242Z,10.13
2022-10-12T22:24:20.746Z,10.50
2022-10-12T22:26:49.237Z,10.97
2022-10-12T22:29:16.943Z,10.53
2022-10-12T22:31:45.909Z,11.01
2022-10-12T22:34:16.017Z,10.91
2022-10-12T22:36:44.337Z,10.54
2022-10-12T22:39:13.324Z,10.71
2022-10-12T22:41:44.795Z,10.71
2022-10-12T22:44:12.645Z,10.87
2022-10-12T22:46:40.455Z,10.85
2022-10-12T22:49:08.565Z,10.58
2022-10-12T22:51:39.267Z,10.70
2022-10-12T22:54:07.478Z,10.85
2022-10-12T22:56:37.854Z,10.89
2022-10-12T22:59:08.673Z,10.71
2022-10-12T23:01:37.315Z,10.63
2022-10-12T23:04:05.313Z,10.33
2022-10-12T23:06:33.264Z,10.59
2022-10-12T23:09:01.705Z,10.72
2022-10-12T23:11:29.843Z,10.61
2022-10-12T23:13:58.165Z,10.56
2022-10-12T23:16:31.423Z,10.48
2022-10-12T23:19:01.833Z,10.30
2022-10-12T23:21:30.727Z,10.03
2022-10-12T23:24:00.220Z,9.98
2022-10-12T23:26:29.330Z,10.20
2022-10-12T23:28:57.937Z,10.02
2022-10-12T23:31:27.996Z,10.46
2022-10-12T23:33:58.127Z,10.39
2022-10-12T23:36:26.685Z,10.54
2022-10-12T23:38:54.483Z,10.13
2022-10-12T23:41:22.304Z,9.81
2022-10-12T23:43:50.353Z,10.59
2022-10-12T23:46:18.085Z,10.53
2022-10-12T23:48:45.895Z,10.70
2022-10-12T23:51:14.052Z,10.71
2022-10-12T23:53:42.703Z,10.58
2022-10-12T23:56:10.823Z,10.49
2022-10-12T23:58:38.958Z,10.59
